Time;durP1;ratioP1;P1;durP2;ratioP2;P2;SDS_P1;SDS_P2;PMS_P1;PMS_P2;Temp;Humidity;BMP_temperature;BMP_pressure;BME280_temperature;BME280_humidity;BME280_pressure;Samples;Min_cycle;Max_cycle;Signal;HPM_P1;HPM_P2
2023/06/09 00:00:19;;;;;;;19.88;6.63;;;13.30;99.90;;;;;;5026098;28;20056;-60
2023/06/09 00:02:50;;;;;;;18.73;6.93;;;13.10;99.90;;;;;;5025161;28;20112;-61
2023/06/09 00:05:19;;;;;;;26.75;6.80;;;13.10;99.90;;;;;;5026174;28;20045;-62
2023/06/09 00:07:47;;;;;;;21.67;7.13;;;13.10;99.90;;;;;;5025934;28;20443;-57
2023/06/09 00:10:13;;;;;;;16.02;6.90;;;13.00;99.90;;;;;;5025348;28;20096;-62
2023/06/09 00:12:40;;;;;;;16.05;6.15;;;13.00;99.90;;;;;;5018803;28;20049;-59
2023/06/09 00:15:07;;;;;;;22.15;7.93;;;13.00;99.90;;;;;;5006258;28;20081;-58
2023/06/09 00:17:33;;;;;;;22.02;7.32;;;13.00;99.90;;;;;;5004580;28;20033;-57
2023/06/09 00:20:03;;;;;;;15.73;6.93;;;13.00;99.90;;;;;;5005245;28;20046;-54
2023/06/09 00:22:28;;;;;;;20.73;7.28;;;13.00;99.90;;;;;;5006110;28;20064;-61
2023/06/09 00:24:54;;;;;;;17.17;7.15;;;13.10;99.90;;;;;;5005998;28;20053;-59
2023/06/09 00:27:20;;;;;;;21.70;7.65;;;13.10;99.90;;;;;;5005622;28;20397;-60
2023/06/09 00:29:45;;;;;;;21.48;7.50;;;13.10;99.90;;;;;;5005636;28;20038;-58
2023/06/09 00:32:11;;;;;;;18.73;7.20;;;13.10;99.90;;;;;;5005593;28;20049;-62
2023/06/09 00:34:38;;;;;;;16.95;7.25;;;13.10;99.90;;;;;;4986666;28;20050;-62
2023/06/09 00:37:04;;;;;;;21.73;7.63;;;13.00;99.90;;;;;;5005806;28;20081;-57
2023/06/09 00:39:30;;;;;;;18.17;6.90;;;13.00;99.90;;;;;;5005706;28;20124;-54
2023/06/09 00:41:56;;;;;;;16.60;7.38;;;13.00;99.90;;;;;;4987813;28;20133;-61
2023/06/09 00:44:21;;;;;;;25.20;7.88;;;13.00;99.90;;;;;;5005440;28;20500;-62
2023/06/09 00:46:47;;;;;;;16.35;6.63;;;13.00;99.90;;;;;;5005070;28;20117;-57
2023/06/09 00:49:13;;;;;;;20.85;7.93;;;13.00;99.90;;;;;;5004826;28;20453;-60
2023/06/09 00:51:39;;;;;;;19.17;7.40;;;12.90;99.90;;;;;;5004917;28;20033;-55
2023/06/09 00:54:06;;;;;;;21.27;7.28;;;12.90;99.90;;;;;;5005380;28;20046;-62
2023/06/09 00:56:33;;;;;;;24.88;7.63;;;12.90;99.90;;;;;;5004998;28;20042;-58
2023/06/09 00:58:59;;;;;;;20.70;7.38;;;12.90;99.90;;;;;;5004987;28;20246;-62
2023/06/09 01:01:28;;;;;;;17.02;6.05;;;12.90;99.90;;;;;;5004970;28;20053;-62
2023/06/09 01:03:54;;;;;;;16.92;7.25;;;13.00;99.90;;;;;;5004226;28;20485;-58
2023/06/09 01:06:26;;;;;;;22.13;7.65;;;12.80;99.90;;;;;;5004549;28;20060;-56
2023/06/09 01:08:59;;;;;;;23.85;7.95;;;12.90;99.90;;;;;;5005045;28;20045;-62
2023/06/09 01:11:54;;;;;;;24.88;7.20;;;13.00;99.90;;;;;;4987232;28;20053;-63
2023/06/09 01:15:02;;;;;;;19.03;7.30;;;13.00;99.90;;;;;;5024521;28;20139;-58
2023/06/09 01:17:32;;;;;;;17.92;7.32;;;12.90;99.90;;;;;;5022023;28;20540;-59
2023/06/09 01:20:05;;;;;;;16.63;8.00;;;12.90;99.90;;;;;;5024647;28;20404;-62
2023/06/09 01:23:04;;;;;;;23.13;7.65;;;12.80;99.90;;;;;;5024949;28;20083;-61
2023/06/09 01:25:34;;;;;;;21.83;8.20;;;12.90;99.90;;;;;;5024341;28;20041;-58
2023/06/09 01:28:16;;;;;;;21.00;7.93;;;12.90;99.90;;;;;;5024660;28;20127;-60
2023/06/09 01:30:43;;;;;;;22.35;7.85;;;12.90;99.90;;;;;;5023869;28;20116;-50
2023/06/09 01:33:17;;;;;;;16.83;8.05;;;12.90;99.90;;;;;;5023790;28;20037;-59
2023/06/09 01:35:43;;;;;;;22.10;8.02;;;12.90;99.90;;;;;;5024084;28;20042;-52
2023/06/09 01:38:10;;;;;;;19.75;7.97;;;12.80;99.90;;;;;;5023742;28;20048;-63
2023/06/09 01:40:36;;;;;;;19.02;8.05;;;12.80;99.90;;;;;;5023624;28;20068;-61
2023/06/09 01:43:05;;;;;;;22.65;8.88;;;12.80;99.90;;;;;;5024248;28;20046;-53
2023/06/09 01:45:30;;;;;;;23.80;8.27;;;12.80;99.90;;;;;;5024366;28;20045;-58
2023/06/09 01:47:56;;;;;;;23.77;8.38;;;12.80;99.90;;;;;;5023105;28;20046;-64
2023/06/09 01:50:27;;;;;;;17.85;8.13;;;12.80;99.90;;;;;;5023792;28;20046;-64
2023/06/09 01:53:00;;;;;;;20.17;8.00;;;12.80;99.90;;;;;;5024026;28;20448;-58
2023/06/09 01:55:44;;;;;;;18.30;7.70;;;14.10;99.90;;;;;;5006121;28;20052;-57
2023/06/09 01:58:37;;;;;;;17.23;8.18;;;12.80;99.90;;;;;;5006125;28;20045;-56
2023/06/09 02:01:06;;;;;;;19.40;7.82;;;12.80;99.90;;;;;;5024180;28;20045;-61
2023/06/09 02:03:35;;;;;;;15.73;7.80;;;12.90;99.90;;;;;;5023145;28;20481;-55
2023/06/09 02:06:03;;;;;;;17.25;8.07;;;12.80;99.90;;;;;;5023934;28;20388;-59
2023/06/09 02:08:30;;;;;;;18.63;7.72;;;12.80;99.90;;;;;;5024053;28;20045;-62
2023/06/09 02:10:56;;;;;;;20.17;8.07;;;12.80;99.90;;;;;;5005696;28;20128;-60
2023/06/09 02:13:21;;;;;;;19.88;8.30;;;12.80;99.90;;;;;;5005537;28;20175;-63
2023/06/09 02:15:47;;;;;;;19.67;8.52;;;12.80;99.90;;;;;;5023498;28;20033;-59
2023/06/09 02:18:17;;;;;;;26.55;9.57;;;12.80;99.90;;;;;;5022919;28;20127;-59
2023/06/09 02:20:43;;;;;;;19.02;9.15;;;13.10;99.90;;;;;;5023076;28;20041;-62
2023/06/09 02:23:10;;;;;;;23.20;8.38;;;12.80;99.90;;;;;;5005706;28;20420;-58
2023/06/09 02:25:36;;;;;;;17.98;9.25;;;12.80;99.90;;;;;;5023859;28;20393;-59
2023/06/09 02:28:05;;;;;;;21.33;9.20;;;12.80;99.90;;;;;;5023161;28;20049;-60
2023/06/09 02:30:34;;;;;;;20.55;8.95;;;12.90;99.90;;;;;;5023915;28;20067;-61
2023/06/09 02:33:00;;;;;;;19.63;8.93;;;12.90;99.90;;;;;;5022662;28;20396;-60
2023/06/09 02:35:28;;;;;;;19.05;8.85;;;12.80;99.90;;;;;;5005468;28;20041;-58
2023/06/09 02:37:54;;;;;;;24.52;9.13;;;12.80;99.90;;;;;;5023480;28;20125;-62
2023/06/09 02:40:20;;;;;;;19.88;8.60;;;12.80;99.90;;;;;;5023431;28;20124;-58
2023/06/09 02:42:46;;;;;;;20.45;8.73;;;12.70;99.90;;;;;;5026649;28;20132;-55
2023/06/09 02:45:12;;;;;;;21.98;9.13;;;12.70;99.90;;;;;;5027060;28;20132;-59
2023/06/09 02:47:38;;;;;;;21.02;8.63;;;12.70;99.90;;;;;;5026856;28;20063;-61
2023/06/09 02:50:05;;;;;;;24.13;9.30;;;12.80;99.90;;;;;;5027668;28;20041;-56
2023/06/09 02:52:31;;;;;;;20.98;8.75;;;12.70;99.90;;;;;;5026920;28;20041;-61
2023/06/09 02:54:57;;;;;;;21.50;8.77;;;12.70;99.90;;;;;;5027691;28;20045;-60
2023/06/09 02:57:23;;;;;;;20.35;8.82;;;12.90;99.90;;;;;;5027351;28;20058;-53
2023/06/09 02:59:49;;;;;;;21.70;9.45;;;12.80;99.90;;;;;;5026586;28;20045;-60
2023/06/09 03:02:15;;;;;;;19.63;9.38;;;12.80;99.90;;;;;;5008536;28;20045;-58
2023/06/09 03:04:42;;;;;;;22.55;9.30;;;12.80;99.90;;;;;;5027236;28;20088;-60
2023/06/09 03:07:13;;;;;;;21.98;9.15;;;12.90;99.90;;;;;;4993048;28;20076;-53
2023/06/09 03:09:44;;;;;;;21.13;9.52;;;12.80;99.90;;;;;;5027279;28;20045;-62
2023/06/09 03:12:10;;;;;;;18.35;9.65;;;12.80;99.90;;;;;;5026446;28;20068;-52
2023/06/09 03:14:36;;;;;;;26.38;9.07;;;12.80;99.90;;;;;;5026298;28;20053;-61
2023/06/09 03:17:04;;;;;;;21.17;9.43;;;12.80;99.90;;;;;;5026088;28;20041;-59
2023/06/09 03:19:30;;;;;;;24.25;9.35;;;12.80;99.90;;;;;;5025753;28;20050;-58
2023/06/09 03:21:56;;;;;;;24.23;9.27;;;12.70;99.90;;;;;;5026484;28;20060;-60
2023/06/09 03:24:22;;;;;;;20.52;9.07;;;12.80;99.90;;;;;;5026510;28;20041;-61
2023/06/09 03:26:47;;;;;;;21.65;9.25;;;12.80;99.90;;;;;;5026521;28;20099;-58
2023/06/09 03:29:13;;;;;;;21.40;9.05;;;12.80;99.90;;;;;;5026473;28;20052;-53
2023/06/09 03:31:39;;;;;;;21.38;8.70;;;12.80;99.90;;;;;;5026539;28;20044;-60
2023/06/09 03:34:04;;;;;;;20.13;8.38;;;12.80;99.90;;;;;;5025708;28;20174;-54
2023/06/09 03:36:30;;;;;;;21.92;8.60;;;12.80;99.90;;;;;;5026357;28;20037;-59
2023/06/09 03:38:56;;;;;;;24.85;9.02;;;12.80;99.90;;;;;;5026482;28;20587;-61
2023/06/09 03:41:21;;;;;;;26.40;9.23;;;12.80;99.90;;;;;;5026157;28;20484;-58
2023/06/09 03:43:47;;;;;;;22.13;9.50;;;12.90;99.90;;;;;;5026478;28;20037;-61
2023/06/09 03:46:13;;;;;;;20.92;8.65;;;12.90;99.90;;;;;;5026524;28;20124;-58
2023/06/09 03:48:40;;;;;;;20.02;9.07;;;12.90;99.90;;;;;;5007797;28;20053;-62
2023/06/09 03:51:06;;;;;;;24.20;9.20;;;13.00;99.90;;;;;;5026409;28;20049;-61
2023/06/09 03:53:31;;;;;;;24.80;9.15;;;13.00;99.90;;;;;;5025082;28;20041;-61
2023/06/09 03:55:59;;;;;;;22.75;9.18;;;13.00;99.90;;;;;;5026006;28;20057;-62
2023/06/09 03:58:25;;;;;;;21.80;9.27;;;13.00;99.90;;;;;;5026021;28;20073;-61
2023/06/09 04:00:51;;;;;;;22.40;10.15;;;13.00;99.90;;;;;;5025932;28;20467;-59
2023/06/09 04:03:18;;;;;;;19.17;9.25;;;13.00;99.90;;;;;;5025233;28;20049;-59
2023/06/09 04:05:44;;;;;;;21.02;10.00;;;13.00;99.90;;;;;;5025608;28;20045;-61
2023/06/09 04:08:10;;;;;;;28.02;10.48;;;13.00;99.90;;;;;;5008326;28;20096;-62
2023/06/09 04:10:36;;;;;;;24.15;10.65;;;13.10;99.90;;;;;;5008069;28;20049;-62
2023/06/09 04:13:02;;;;;;;21.83;10.75;;;13.10;99.90;;;;;;5024781;28;20080;-62
2023/06/09 04:15:27;;;;;;;24.38;10.15;;;13.20;99.90;;;;;;5026145;28;20404;-62
2023/06/09 04:17:53;;;;;;;21.95;11.00;;;13.30;99.90;;;;;;5025068;28;20124;-61
2023/06/09 04:20:22;;;;;;;24.35;10.68;;;13.30;99.90;;;;;;5007320;28;20419;-55
2023/06/09 04:22:49;;;;;;;22.42;12.18;;;13.30;99.90;;;;;;5025682;28;20106;-62
2023/06/09 04:25:15;;;;;;;27.40;11.07;;;13.30;99.90;;;;;;5008225;28;20045;-58
2023/06/09 04:27:42;;;;;;;20.73;11.23;;;13.30;99.90;;;;;;5025724;28;20412;-62
2023/06/09 04:30:08;;;;;;;21.75;11.13;;;13.40;99.90;;;;;;5025344;28;20045;-61
2023/06/09 04:32:34;;;;;;;24.83;11.60;;;13.30;99.90;;;;;;5024987;28;20049;-61
2023/06/09 04:35:01;;;;;;;25.50;11.70;;;13.40;99.90;;;;;;5025420;28;20041;-58
2023/06/09 04:37:27;;;;;;;25.63;12.00;;;13.50;99.90;;;;;;5024920;28;20139;-57
2023/06/09 04:39:53;;;;;;;22.00;11.63;;;13.50;99.90;;;;;;5025375;28;20084;-59
2023/06/09 04:42:22;;;;;;;26.10;11.80;;;13.50;99.90;;;;;;5025024;28;20057;-59
2023/06/09 04:44:49;;;;;;;25.65;13.43;;;13.40;99.90;;;;;;5024626;28;20052;-57
2023/06/09 04:47:18;;;;;;;24.50;11.45;;;13.50;99.90;;;;;;5007199;28;20149;-61
2023/06/09 04:49:46;;;;;;;22.70;11.55;;;13.60;99.90;;;;;;5025593;28;20132;-60
2023/06/09 04:52:17;;;;;;;21.05;12.15;;;13.40;99.90;;;;;;5024830;28;20045;-55
2023/06/09 04:54:44;;;;;;;22.80;12.40;;;13.50;99.90;;;;;;5025665;28;20034;-61
2023/06/09 04:57:10;;;;;;;24.83;12.52;;;13.50;99.90;;;;;;5025326;28;20045;-62
2023/06/09 04:59:40;;;;;;;23.55;12.98;;;13.50;99.90;;;;;;5024463;28;20049;-57
2023/06/09 05:02:09;;;;;;;21.05;12.77;;;13.60;99.90;;;;;;5024300;28;20155;-62
2023/06/09 05:04:35;;;;;;;22.20;13.45;;;13.60;99.90;;;;;;5024500;28;20423;-63
2023/06/09 05:07:02;;;;;;;22.00;11.88;;;13.70;99.90;;;;;;5006255;28;20046;-57
2023/06/09 05:09:27;;;;;;;23.52;13.30;;;13.60;99.90;;;;;;5024696;28;20048;-62
2023/06/09 05:11:53;;;;;;;22.40;13.52;;;13.60;99.90;;;;;;5024566;28;20431;-57
2023/06/09 05:14:18;;;;;;;21.25;12.60;;;13.60;99.90;;;;;;5024894;28;20522;-62
2023/06/09 05:16:45;;;;;;;25.60;14.48;;;13.60;99.90;;;;;;5024441;28;20052;-52
2023/06/09 05:19:11;;;;;;;24.58;13.18;;;13.60;99.90;;;;;;5024144;28;20041;-60
2023/06/09 05:21:37;;;;;;;20.77;12.73;;;13.60;99.90;;;;;;5024679;28;20115;-53
2023/06/09 05:24:03;;;;;;;28.63;13.85;;;13.60;99.90;;;;;;5024296;28;20131;-61
2023/06/09 05:26:29;;;;;;;25.77;13.48;;;13.70;99.90;;;;;;5024603;28;20052;-57
2023/06/09 05:28:55;;;;;;;24.00;13.00;;;14.70;99.90;;;;;;5006178;28;20080;-62
2023/06/09 05:31:21;;;;;;;25.10;13.93;;;13.80;99.90;;;;;;5023931;28;20530;-59
2023/06/09 05:33:46;;;;;;;25.80;13.13;;;13.90;99.90;;;;;;5023895;28;20059;-61
2023/06/09 05:36:12;;;;;;;22.27;12.93;;;14.00;99.90;;;;;;5024046;28;20033;-62
2023/06/09 05:38:38;;;;;;;24.33;12.27;;;14.10;99.90;;;;;;5024162;28;20103;-58
2023/06/09 05:41:03;;;;;;;21.17;12.52;;;14.10;99.90;;;;;;5023612;28;20122;-62
2023/06/09 05:43:29;;;;;;;24.30;13.23;;;14.10;99.90;;;;;;5024197;28;20048;-56
2023/06/09 05:45:58;;;;;;;21.33;13.07;;;14.20;99.90;;;;;;5023960;28;20037;-62
2023/06/09 05:48:23;;;;;;;23.77;12.55;;;14.30;99.90;;;;;;5022406;28;20121;-56
2023/06/09 05:50:49;;;;;;;25.48;12.77;;;14.50;99.90;;;;;;5024303;28;20117;-58
2023/06/09 05:53:16;;;;;;;22.88;12.30;;;14.60;99.90;;;;;;5024188;28;20085;-55
2023/06/09 05:55:44;;;;;;;19.52;12.05;;;14.90;99.90;;;;;;5024061;28;20404;-52
2023/06/09 05:58:11;;;;;;;20.08;12.02;;;15.00;99.90;;;;;;5024167;28;20056;-59
2023/06/09 06:00:36;;;;;;;22.52;11.35;;;15.30;99.90;;;;;;5023679;28;20435;-63
2023/06/09 06:03:03;;;;;;;19.77;11.10;;;15.90;99.90;;;;;;5005334;28;20041;-62
2023/06/09 06:05:29;;;;;;;17.95;10.27;;;16.40;99.90;;;;;;5023183;28;20045;-63
2023/06/09 06:07:58;;;;;;;19.60;10.82;;;16.90;99.90;;;;;;5023826;28;20041;-58
2023/06/09 06:10:24;;;;;;;19.48;9.68;;;17.40;99.90;;;;;;5023429;28;20052;-57
2023/06/09 06:12:50;;;;;;;17.10;9.63;;;17.80;99.90;;;;;;5023346;28;20049;-63
2023/06/09 06:15:16;;;;;;;16.52;7.95;;;18.20;99.90;;;;;;5023783;28;20358;-58
2023/06/09 06:17:41;;;;;;;15.23;8.65;;;18.50;99.90;;;;;;5022392;28;20080;-63
2023/06/09 06:20:07;;;;;;;18.25;8.60;;;18.80;99.90;;;;;;5005302;28;20088;-62
2023/06/09 06:22:33;;;;;;;17.83;7.90;;;19.10;99.90;;;;;;5023581;28;20473;-62
2023/06/09 06:24:59;;;;;;;12.98;7.45;;;19.40;99.90;;;;;;5023545;28;20457;-62
2023/06/09 06:27:24;;;;;;;17.90;8.00;;;19.60;99.90;;;;;;5023865;28;20034;-61
2023/06/09 06:29:50;;;;;;;17.08;6.95;;;19.70;99.90;;;;;;5023392;28;20034;-59
2023/06/09 06:32:15;;;;;;;16.90;7.35;;;19.90;99.90;;;;;;5023061;28;20045;-56
2023/06/09 06:34:41;;;;;;;16.80;7.82;;;20.00;99.90;;;;;;5023293;28;20071;-64
2023/06/09 06:37:07;;;;;;;14.38;7.00;;;20.00;99.90;;;;;;5022906;28;20192;-56
2023/06/09 06:39:32;;;;;;;15.10;6.60;;;20.00;99.90;;;;;;5023561;28;20434;-60
2023/06/09 06:41:58;;;;;;;17.38;6.97;;;20.10;99.90;;;;;;5023395;28;20053;-63
2023/06/09 06:44:24;;;;;;;16.48;6.85;;;20.30;99.90;;;;;;5023273;28;20053;-60
2023/06/09 06:46:50;;;;;;;17.83;7.00;;;20.30;99.90;;;;;;5022557;28;20037;-65
2023/06/09 06:49:16;;;;;;;13.70;6.70;;;20.40;99.90;;;;;;5023627;28;20077;-62
2023/06/09 06:51:42;;;;;;;13.73;6.28;;;20.40;99.90;;;;;;5023481;28;20042;-63
2023/06/09 06:54:07;;;;;;;15.25;6.38;;;20.50;99.90;;;;;;5022359;28;20056;-61
2023/06/09 06:56:33;;;;;;;16.20;6.63;;;20.60;99.90;;;;;;5023568;28;20416;-62
2023/06/09 06:58:58;;;;;;;11.15;6.20;;;20.60;99.90;;;;;;5022986;28;20228;-53
2023/06/09 07:01:25;;;;;;;13.95;6.30;;;20.70;99.90;;;;;;5005280;28;20049;-63
2023/06/09 07:03:50;;;;;;;14.73;6.22;;;20.90;99.90;;;;;;5004477;28;20061;-53
2023/06/09 07:06:17;;;;;;;13.82;6.70;;;21.00;99.90;;;;;;5022810;28;20414;-63
2023/06/09 07:08:43;;;;;;;12.95;6.15;;;21.00;99.90;;;;;;5023089;28;20049;-58
2023/06/09 07:11:09;;;;;;;13.00;5.60;;;21.00;99.90;;;;;;5022811;28;20543;-59
2023/06/09 07:13:35;;;;;;;15.52;5.88;;;21.10;99.90;;;;;;5023236;28;20064;-61
2023/06/09 07:16:01;;;;;;;14.68;6.35;;;21.20;99.90;;;;;;5014284;28;20388;-63
2023/06/09 07:18:27;;;;;;;11.98;5.80;;;21.30;99.90;;;;;;5007806;28;20041;-62
2023/06/09 07:20:53;;;;;;;11.50;5.60;;;21.40;99.90;;;;;;5003365;28;20053;-64
2023/06/09 07:23:19;;;;;;;13.38;5.57;;;21.50;99.90;;;;;;5003491;28;20501;-61
2023/06/09 07:25:44;;;;;;;10.90;5.22;;;21.50;99.90;;;;;;5003733;28;20042;-61
2023/06/09 07:28:10;;;;;;;14.27;5.57;;;21.60;99.90;;;;;;5005205;28;20046;-64
2023/06/09 07:30:37;;;;;;;13.18;5.80;;;21.80;99.90;;;;;;5006445;28;20042;-58
2023/06/09 07:33:05;;;;;;;11.48;4.80;;;21.80;99.90;;;;;;5006251;28;20465;-64
2023/06/09 07:35:30;;;;;;;14.27;5.80;;;21.60;99.90;;;;;;4988931;28;20046;-63
2023/06/09 07:37:56;;;;;;;14.52;5.65;;;21.70;99.90;;;;;;5011694;28;20696;-57
2023/06/09 07:40:22;;;;;;;12.45;5.45;;;21.80;99.90;;;;;;5006905;28;20054;-60
2023/06/09 07:42:48;;;;;;;12.98;5.63;;;21.90;99.90;;;;;;5006807;28;20129;-55
2023/06/09 07:45:14;;;;;;;10.30;5.05;;;21.80;99.90;;;;;;5005991;28;20297;-59
2023/06/09 07:47:40;;;;;;;14.20;5.45;;;21.90;99.90;;;;;;5005851;28;20251;-57
2023/06/09 07:50:06;;;;;;;12.73;5.70;;;21.90;99.90;;;;;;5006620;28;20046;-57
2023/06/09 07:52:32;;;;;;;12.77;6.05;;;22.10;99.90;;;;;;5006533;28;20540;-62
2023/06/09 07:54:58;;;;;;;13.68;5.10;;;22.20;99.90;;;;;;5006537;28;20058;-58
2023/06/09 07:57:23;;;;;;;14.65;5.80;;;22.40;99.90;;;;;;5006642;28;20042;-62
2023/06/09 07:59:49;;;;;;;12.55;5.63;;;22.50;99.90;;;;;;4988876;28;20073;-63
2023/06/09 08:02:16;;;;;;;10.10;5.10;;;22.60;99.80;;;;;;5005200;28;20297;-52
2023/06/09 08:04:42;;;;;;;10.13;5.28;;;22.60;99.60;;;;;;5006216;28;20138;-60
2023/06/09 08:07:09;;;;;;;11.77;5.32;;;22.70;99.70;;;;;;4988402;28;20046;-63
2023/06/09 08:09:35;;;;;;;11.07;4.57;;;22.90;99.50;;;;;;5005765;28;20045;-59
2023/06/09 08:12:01;;;;;;;10.80;4.55;;;23.00;99.30;;;;;;5004225;28;20219;-63
2023/06/09 08:14:27;;;;;;;10.80;4.70;;;23.00;98.90;;;;;;4986244;28;20048;-64
2023/06/09 08:16:52;;;;;;;14.15;4.82;;;23.00;98.60;;;;;;5003482;28;20092;-64
2023/06/09 08:19:18;;;;;;;10.30;4.30;;;23.10;98.40;;;;;;5005693;28;20041;-60
2023/06/09 08:21:44;;;;;;;11.57;4.70;;;23.10;98.30;;;;;;5005182;28;20125;-60
2023/06/09 08:24:13;;;;;;;14.30;5.25;;;23.10;98.30;;;;;;4987194;28;20409;-55
2023/06/09 08:26:40;;;;;;;8.90;4.32;;;23.10;97.70;;;;;;5017962;28;20060;-62
2023/06/09 08:29:06;;;;;;;9.35;4.80;;;23.20;97.90;;;;;;4987633;28;20248;-58
2023/06/09 08:31:32;;;;;;;9.93;4.47;;;23.30;97.90;;;;;;4998981;28;20049;-59
2023/06/09 08:33:58;;;;;;;10.00;4.95;;;23.30;97.60;;;;;;4985491;28;20541;-59
2023/06/09 08:36:25;;;;;;;13.52;4.75;;;23.40;97.60;;;;;;4990125;28;20034;-58
2023/06/09 08:38:50;;;;;;;11.35;4.70;;;23.50;97.60;;;;;;5004842;28;20053;-61
2023/06/09 08:41:17;;;;;;;9.93;4.63;;;23.60;97.40;;;;;;5005033;28;20049;-48
2023/06/09 08:43:42;;;;;;;8.30;4.25;;;23.70;96.90;;;;;;5005526;28;20052;-51
2023/06/09 08:46:11;;;;;;;14.18;5.50;;;23.70;96.80;;;;;;5005500;28;20042;-60
2023/06/09 08:48:50;;;;;;;9.73;4.35;;;23.80;95.90;;;;;;5004957;28;20044;-50
2023/06/09 08:51:16;;;;;;;15.75;5.78;;;23.90;94.90;;;;;;5005570;28;20088;-60
2023/06/09 08:53:43;;;;;;;13.25;4.43;;;23.90;95.80;;;;;;5005592;28;20038;-58
2023/06/09 08:56:09;;;;;;;9.68;4.93;;;24.10;96.10;;;;;;5004891;28;20108;-59
2023/06/09 08:58:35;;;;;;;8.98;4.40;;;24.20;95.60;;;;;;5005394;28;20078;-55
2023/06/09 09:01:01;;;;;;;7.70;3.97;;;24.40;95.50;;;;;;5005423;28;20042;-58
2023/06/09 09:03:27;;;;;;;7.63;4.10;;;24.50;95.00;;;;;;5004783;28;20081;-59
2023/06/09 09:05:53;;;;;;;8.68;3.97;;;24.70;94.60;;;;;;5004393;28;20073;-59
2023/06/09 09:08:20;;;;;;;7.32;4.25;;;24.80;94.30;;;;;;4987011;28;20240;-58
2023/06/09 09:10:46;;;;;;;7.82;4.10;;;24.90;94.10;;;;;;5005137;28;20350;-60
2023/06/09 09:13:12;;;;;;;6.82;3.63;;;25.10;93.40;;;;;;5015210;28;20049;-58
2023/06/09 09:15:49;;;;;;;8.10;3.85;;;25.30;92.20;;;;;;5024300;28;20053;-57
2023/06/09 09:18:17;;;;;;;8.50;3.72;;;25.30;91.00;;;;;;5006204;28;20460;-55
2023/06/09 09:20:42;;;;;;;8.80;3.85;;;25.50;92.10;;;;;;5023404;28;20094;-53
2023/06/09 09:23:08;;;;;;;8.38;4.35;;;25.50;92.20;;;;;;5024647;28;20409;-60
2023/06/09 09:25:34;;;;;;;8.95;4.00;;;25.60;92.10;;;;;;5024421;28;20443;-51
2023/06/09 09:28:11;;;;;;;9.05;4.18;;;25.60;91.50;;;;;;5024014;28;20542;-60
2023/06/09 09:30:49;;;;;;;9.15;3.45;;;25.70;90.60;;;;;;5006555;28;20053;-60
2023/06/09 09:33:27;;;;;;;7.28;3.88;;;26.00;90.10;;;;;;5005187;28;20273;-56
2023/06/09 09:35:59;;;;;;;8.23;4.13;;;26.20;91.00;;;;;;5006228;28;20045;-56
2023/06/09 09:38:27;;;;;;;9.10;3.83;;;26.30;89.00;;;;;;5024107;28;20417;-61
2023/06/09 09:40:54;;;;;;;6.85;3.97;;;26.30;90.20;;;;;;5023455;28;20041;-56
2023/06/09 09:43:21;;;;;;;9.45;4.10;;;26.20;90.20;;;;;;5024000;28;20041;-61
2023/06/09 09:45:50;;;;;;;9.05;3.80;;;26.30;90.40;;;;;;5023846;28;20045;-59
2023/06/09 09:48:18;;;;;;;10.07;4.20;;;26.50;90.10;;;;;;5004941;28;20125;-57
2023/06/09 09:50:45;;;;;;;8.18;4.18;;;26.70;90.10;;;;;;5024191;28;20312;-62
2023/06/09 09:53:11;;;;;;;7.03;3.75;;;26.90;89.70;;;;;;5025490;28;20048;-61
2023/06/09 09:55:40;;;;;;;7.93;4.15;;;27.10;90.00;;;;;;5024999;28;20473;-55
2023/06/09 09:58:07;;;;;;;6.30;3.70;;;27.20;87.90;;;;;;5025536;28;20073;-60
2023/06/09 10:00:35;;;;;;;10.38;3.70;;;27.30;88.90;;;;;;5025402;28;20049;-60
2023/06/09 10:03:05;;;;;;;6.75;4.00;;;27.30;88.20;;;;;;5024379;28;20045;-54
2023/06/09 10:05:33;;;;;;;7.93;3.72;;;27.40;88.00;;;;;;5025666;28;20049;-60
2023/06/09 10:08:02;;;;;;;10.77;4.45;;;27.30;87.20;;;;;;5025777;28;20049;-58
2023/06/09 10:10:29;;;;;;;9.63;4.20;;;27.30;87.40;;;;;;5024989;28;20601;-59
2023/06/09 10:12:57;;;;;;;9.23;4.45;;;27.40;87.00;;;;;;5025044;28;20463;-60
2023/06/09 10:15:23;;;;;;;11.07;4.20;;;27.40;87.40;;;;;;5025183;28;20512;-52
2023/06/09 10:17:52;;;;;;;10.00;3.50;;;27.50;88.00;;;;;;5023799;28;20041;-48
2023/06/09 10:20:19;;;;;;;6.35;4.20;;;27.70;86.70;;;;;;5025350;28;20136;-61
2023/06/09 10:22:46;;;;;;;6.95;3.97;;;27.80;87.90;;;;;;5025187;28;20069;-56
2023/06/09 10:25:12;;;;;;;7.13;4.18;;;27.90;86.80;;;;;;5006772;28;20056;-51
2023/06/09 10:27:38;;;;;;;9.50;3.85;;;27.90;86.60;;;;;;5025331;28;20045;-61
2023/06/09 10:30:05;;;;;;;9.70;4.28;;;27.90;85.70;;;;;;5025073;28;20040;-53
2023/06/09 10:32:34;;;;;;;9.60;3.97;;;27.80;84.60;;;;;;5024939;28;20052;-56
2023/06/09 10:35:02;;;;;;;6.70;3.70;;;27.90;84.90;;;;;;5025626;28;20081;-60
2023/06/09 10:37:32;;;;;;;8.32;3.90;;;28.00;84.90;;;;;;5025316;28;20080;-54
2023/06/09 10:40:08;;;;;;;8.30;4.18;;;28.00;84.00;;;;;;5024740;28;20096;-61
2023/06/09 10:42:48;;;;;;;7.75;4.38;;;28.10;85.20;;;;;;5025553;28;20041;-57
2023/06/09 10:45:16;;;;;;;6.03;3.97;;;28.20;84.00;;;;;;5025026;28;20045;-61
2023/06/09 10:47:46;;;;;;;6.70;4.00;;;28.20;84.70;;;;;;5023051;28;20104;-50
2023/06/09 10:50:26;;;;;;;7.55;4.03;;;28.20;83.20;;;;;;5023510;28;20235;-52
2023/06/09 10:52:54;;;;;;;6.25;4.00;;;28.30;82.20;;;;;;5022692;28;20714;-57
2023/06/09 10:55:22;;;;;;;9.23;4.03;;;28.30;85.20;;;;;;5024562;28;20048;-56
2023/06/09 10:57:50;;;;;;;5.85;3.30;;;28.40;84.60;;;;;;5023910;28;20045;-58
2023/06/09 11:00:16;;;;;;;8.75;4.50;;;28.50;83.00;;;;;;5013898;28;20496;-58
2023/06/09 11:02:45;;;;;;;7.45;4.20;;;28.50;83.20;;;;;;5021836;28;20034;-61
2023/06/09 11:05:11;;;;;;;8.80;4.28;;;28.50;83.40;;;;;;5023800;28;20083;-57
2023/06/09 11:07:51;;;;;;;9.57;4.38;;;28.50;83.80;;;;;;5012706;28;20041;-59
2023/06/09 11:10:19;;;;;;;5.90;3.92;;;28.70;81.80;;;;;;5026681;28;20396;-61
2023/06/09 11:12:46;;;;;;;8.02;4.07;;;28.70;83.10;;;;;;5024826;28;20056;-55
2023/06/09 11:15:16;;;;;;;7.80;4.00;;;28.80;84.00;;;;;;5026157;28;20361;-61
2023/06/09 11:17:46;;;;;;;8.18;4.40;;;28.90;83.70;;;;;;5025769;28;20038;-57
2023/06/09 11:20:14;;;;;;;7.90;4.07;;;29.00;83.40;;;;;;5026505;28;20049;-60
2023/06/09 11:22:48;;;;;;;7.40;4.53;;;28.90;83.70;;;;;;5026216;28;20049;-60
2023/06/09 11:25:17;;;;;;;9.82;5.25;;;29.00;82.50;;;;;;5026509;28;20045;-48
2023/06/09 11:27:44;;;;;;;7.45;4.30;;;28.90;82.40;;;;;;5026337;28;20049;-56
2023/06/09 11:30:18;;;;;;;8.43;4.28;;;28.90;83.20;;;;;;5026164;28;20091;-60
2023/06/09 11:32:45;;;;;;;7.20;4.00;;;29.00;83.20;;;;;;5014397;28;20473;-54
2023/06/09 11:35:22;;;;;;;7.07;4.18;;;29.00;84.20;;;;;;5026185;28;20041;-58
2023/06/09 11:37:51;;;;;;;6.93;4.50;;;29.10;83.60;;;;;;5026321;28;20038;-61
2023/06/09 11:40:17;;;;;;;7.65;4.38;;;29.00;83.60;;;;;;5024996;28;20270;-61
2023/06/09 11:42:43;;;;;;;9.88;4.50;;;29.00;84.10;;;;;;5025615;28;20389;-57
2023/06/09 11:45:09;;;;;;;10.10;4.18;;;29.00;84.40;;;;;;5023568;28;20388;-50
2023/06/09 11:47:35;;;;;;;12.95;4.60;;;29.10;84.50;;;;;;5004015;28;20049;-61
2023/06/09 11:50:02;;;;;;;11.07;4.60;;;29.10;84.50;;;;;;5028205;28;20041;-59
2023/06/09 11:52:28;;;;;;;8.02;4.60;;;29.10;84.60;;;;;;5009383;28;20045;-50
2023/06/09 11:54:53;;;;;;;6.95;4.30;;;29.10;85.30;;;;;;5026095;28;20052;-55
2023/06/09 11:57:19;;;;;;;7.65;4.65;;;29.20;85.40;;;;;;5025952;28;20128;-57
2023/06/09 11:59:45;;;;;;;7.72;4.55;;;29.20;85.20;;;;;;5007474;28;20050;-58
2023/06/09 12:02:12;;;;;;;10.75;4.93;;;29.30;85.40;;;;;;5025112;28;20064;-56
2023/06/09 12:04:42;;;;;;;9.75;5.00;;;29.40;84.80;;;;;;5026148;28;20046;-56
2023/06/09 12:07:12;;;;;;;18.00;4.85;;;29.50;84.70;;;;;;5025943;28;20440;-62
2023/06/09 12:09:37;;;;;;;8.00;4.60;;;29.50;84.50;;;;;;5025913;28;20037;-60
2023/06/09 12:12:03;;;;;;;9.13;4.60;;;29.60;85.50;;;;;;5025212;28;20099;-53
2023/06/09 12:14:29;;;;;;;8.02;4.88;;;29.70;85.40;;;;;;5024094;28;20037;-59
2023/06/09 12:16:55;;;;;;;7.97;4.82;;;29.50;85.00;;;;;;5006908;28;20107;-60
2023/06/09 12:19:20;;;;;;;6.30;4.57;;;29.60;84.40;;;;;;5024842;28;20100;-58
2023/06/09 12:21:47;;;;;;;7.85;4.68;;;29.70;85.10;;;;;;5025440;28;20091;-61
2023/06/09 12:24:13;;;;;;;7.30;4.68;;;29.80;84.80;;;;;;5025070;28;20455;-55
2023/06/09 12:26:49;;;;;;;8.20;4.30;;;29.80;84.30;;;;;;5025422;28;20050;-59
2023/06/09 12:29:23;;;;;;;11.32;4.60;;;29.60;82.80;;;;;;5025289;28;20041;-58
2023/06/09 12:31:49;;;;;;;9.35;4.35;;;29.50;84.60;;;;;;5024869;28;20136;-57
2023/06/09 12:34:29;;;;;;;10.75;5.30;;;29.40;85.10;;;;;;5025284;28;20116;-60
2023/06/09 12:36:55;;;;;;;9.55;5.10;;;29.30;83.80;;;;;;5024662;28;20038;-61
2023/06/09 12:39:29;;;;;;;7.78;4.28;;;29.40;85.30;;;;;;5025480;28;20075;-59